sensor_id;sensor_type;location;lat;lon;timestamp;temperature;humidity
44215;DHT22;29884;47.450;19.124;2023-10-31T00:00:10;12.70;99.90
44215;DHT22;29884;47.450;19.124;2023-10-31T00:02:37;12.70;99.90
44215;DHT22;29884;47.450;19.124;2023-10-31T00:05:03;12.70;99.90
44215;DHT22;29884;47.450;19.124;2023-10-31T00:07:29;12.70;99.90
44215;DHT22;29884;47.450;19.124;2023-10-31T00:09:55;12.70;99.90
44215;DHT22;29884;47.450;19.124;2023-10-31T00:12:20;12.60;99.90
44215;DHT22;29884;47.450;19.124;2023-10-31T00:14:46;12.70;99.90
44215;DHT22;29884;47.450;19.124;2023-10-31T00:17:12;12.60;99.90
44215;DHT22;29884;47.450;19.124;2023-10-31T00:19:37;12.60;99.90
44215;DHT22;29884;47.450;19.124;2023-10-31T00:22:03;12.60;99.90
44215;DHT22;29884;47.450;19.124;2023-10-31T00:24:29;12.50;99.90
44215;DHT22;29884;47.450;19.124;2023-10-31T00:26:55;12.50;99.90
44215;DHT22;29884;47.450;19.124;2023-10-31T00:29:20;12.50;99.90
44215;DHT22;29884;47.450;19.124;2023-10-31T00:31:46;12.50;99.90
44215;DHT22;29884;47.450;19.124;2023-10-31T00:34:12;12.50;99.90
44215;DHT22;29884;47.450;19.124;2023-10-31T00:36:38;12.60;99.90
44215;DHT22;29884;47.450;19.124;2023-10-31T00:39:03;12.40;99.90
44215;DHT22;29884;47.450;19.124;2023-10-31T00:41:29;12.40;99.90
44215;DHT22;29884;47.450;19.124;2023-10-31T00:43:55;12.40;99.90
44215;DHT22;29884;47.450;19.124;2023-10-31T00:46:21;12.40;99.90
44215;DHT22;29884;47.450;19.124;2023-10-31T00:48:47;12.40;99.90
44215;DHT22;29884;47.450;19.124;2023-10-31T00:51:13;12.30;99.90
44215;DHT22;29884;47.450;19.124;2023-10-31T00:53:38;12.30;99.90
44215;DHT22;29884;47.450;19.124;2023-10-31T00:56:04;12.30;99.90
44215;DHT22;29884;47.450;19.124;2023-10-31T00:58:30;12.30;99.90
44215;DHT22;29884;47.450;19.124;2023-10-31T01:00:56;12.30;99.90
44215;DHT22;29884;47.450;19.124;2023-10-31T01:03:21;12.30;99.90
44215;DHT22;29884;47.450;19.124;2023-10-31T01:05:47;12.20;99.90
44215;DHT22;29884;47.450;19.124;2023-10-31T01:08:13;12.20;99.90
44215;DHT22;29884;47.450;19.124;2023-10-31T01:10:38;12.30;99.90
44215;DHT22;29884;47.450;19.124;2023-10-31T01:13:04;12.30;99.90
44215;DHT22;29884;47.450;19.124;2023-10-31T01:15:30;12.30;99.90
44215;DHT22;29884;47.450;19.124;2023-10-31T01:17:55;12.30;99.90
44215;DHT22;29884;47.450;19.124;2023-10-31T01:20:21;12.20;99.90
44215;DHT22;29884;47.450;19.124;2023-10-31T01:22:47;12.30;99.90
44215;DHT22;29884;47.450;19.124;2023-10-31T01:25:13;12.30;99.90
44215;DHT22;29884;47.450;19.124;2023-10-31T01:27:38;12.30;99.90
44215;DHT22;29884;47.450;19.124;2023-10-31T01:30:04;12.30;99.90
44215;DHT22;29884;47.450;19.124;2023-10-31T01:32:30;12.20;99.90
44215;DHT22;29884;47.450;19.124;2023-10-31T01:34:56;12.20;99.90
44215;DHT22;29884;47.450;19.124;2023-10-31T01:37:22;12.30;99.90
44215;DHT22;29884;47.450;19.124;2023-10-31T01:39:48;12.30;99.90
44215;DHT22;29884;47.450;19.124;2023-10-31T01:42:14;12.30;99.90
44215;DHT22;29884;47.450;19.124;2023-10-31T01:44:40;12.30;99.90
44215;DHT22;29884;47.450;19.124;2023-10-31T01:47:06;12.30;99.90
44215;DHT22;29884;47.450;19.124;2023-10-31T01:49:32;12.30;99.90
44215;DHT22;29884;47.450;19.124;2023-10-31T01:52:03;12.30;99.90
44215;DHT22;29884;47.450;19.124;2023-10-31T01:54:29;12.30;99.90
44215;DHT22;29884;47.450;19.124;2023-10-31T01:56:58;12.30;99.90
44215;DHT22;29884;47.450;19.124;2023-10-31T01:59:25;12.30;99.90
44215;DHT22;29884;47.450;19.124;2023-10-31T02:01:52;12.40;99.90
44215;DHT22;29884;47.450;19.124;2023-10-31T02:04:18;12.40;99.90
44215;DHT22;29884;47.450;19.124;2023-10-31T02:06:44;12.40;99.90
44215;DHT22;29884;47.450;19.124;2023-10-31T02:09:09;12.40;99.90
44215;DHT22;29884;47.450;19.124;2023-10-31T02:11:35;12.50;99.90
44215;DHT22;29884;47.450;19.124;2023-10-31T02:14:01;12.50;99.90
44215;DHT22;29884;47.450;19.124;2023-10-31T02:16:27;12.60;99.90
44215;DHT22;29884;47.450;19.124;2023-10-31T02:18:53;12.60;99.90
44215;DHT22;29884;47.450;19.124;2023-10-31T02:21:19;12.70;99.90
44215;DHT22;29884;47.450;19.124;2023-10-31T02:23:59;12.80;99.90
44215;DHT22;29884;47.450;19.124;2023-10-31T02:26:33;12.80;99.90
44215;DHT22;29884;47.450;19.124;2023-10-31T02:28:59;12.90;99.90
44215;DHT22;29884;47.450;19.124;2023-10-31T02:31:25;12.90;99.90
44215;DHT22;29884;47.450;19.124;2023-10-31T02:33:50;13.00;99.90
44215;DHT22;29884;47.450;19.124;2023-10-31T02:36:16;13.00;99.90
44215;DHT22;29884;47.450;19.124;2023-10-31T02:38:42;13.00;99.90
44215;DHT22;29884;47.450;19.124;2023-10-31T02:41:08;13.00;99.90
44215;DHT22;29884;47.450;19.124;2023-10-31T02:43:34;13.00;99.90
44215;DHT22;29884;47.450;19.124;2023-10-31T02:45:59;13.00;99.90
44215;DHT22;29884;47.450;19.124;2023-10-31T02:48:26;13.10;99.90
44215;DHT22;29884;47.450;19.124;2023-10-31T02:50:52;13.10;99.90
44215;DHT22;29884;47.450;19.124;2023-10-31T02:53:20;13.10;99.90
44215;DHT22;29884;47.450;19.124;2023-10-31T02:55:46;13.20;99.90
44215;DHT22;29884;47.450;19.124;2023-10-31T02:58:12;13.10;99.90
44215;DHT22;29884;47.450;19.124;2023-10-31T03:00:38;13.20;99.90
44215;DHT22;29884;47.450;19.124;2023-10-31T03:03:03;13.30;99.90
44215;DHT22;29884;47.450;19.124;2023-10-31T03:05:30;13.30;99.90
44215;DHT22;29884;47.450;19.124;2023-10-31T03:07:55;13.40;99.90
44215;DHT22;29884;47.450;19.124;2023-10-31T03:10:21;13.40;99.90
44215;DHT22;29884;47.450;19.124;2023-10-31T03:12:47;13.40;99.90
44215;DHT22;29884;47.450;19.124;2023-10-31T03:15:13;13.40;99.90
44215;DHT22;29884;47.450;19.124;2023-10-31T03:17:39;13.30;99.90
44215;DHT22;29884;47.450;19.124;2023-10-31T03:20:05;13.30;99.90
44215;DHT22;29884;47.450;19.124;2023-10-31T03:22:31;13.30;99.90
44215;DHT22;29884;47.450;19.124;2023-10-31T03:24:57;13.30;99.90
44215;DHT22;29884;47.450;19.124;2023-10-31T03:27:22;13.30;99.90
44215;DHT22;29884;47.450;19.124;2023-10-31T03:29:48;13.30;99.90
44215;DHT22;29884;47.450;19.124;2023-10-31T03:32:14;13.30;99.90
44215;DHT22;29884;47.450;19.124;2023-10-31T03:34:41;13.30;99.90
44215;DHT22;29884;47.450;19.124;2023-10-31T03:37:07;13.30;99.90
44215;DHT22;29884;47.450;19.124;2023-10-31T03:39:32;13.30;99.90
44215;DHT22;29884;47.450;19.124;2023-10-31T03:41:59;13.30;99.90
44215;DHT22;29884;47.450;19.124;2023-10-31T03:44:25;13.20;99.90
44215;DHT22;29884;47.450;19.124;2023-10-31T03:46:50;13.30;99.90
44215;DHT22;29884;47.450;19.124;2023-10-31T03:49:16;13.30;99.90
44215;DHT22;29884;47.450;19.124;2023-10-31T03:51:42;13.20;99.90
44215;DHT22;29884;47.450;19.124;2023-10-31T03:54:08;13.20;99.90
44215;DHT22;29884;47.450;19.124;2023-10-31T03:56:40;13.20;99.90
44215;DHT22;29884;47.450;19.124;2023-10-31T03:59:06;13.10;99.90
44215;DHT22;29884;47.450;19.124;2023-10-31T04:01:32;13.00;99.90
44215;DHT22;29884;47.450;19.124;2023-10-31T04:03:57;13.10;99.90
44215;DHT22;29884;47.450;19.124;2023-10-31T04:06:23;13.00;99.90
44215;DHT22;29884;47.450;19.124;2023-10-31T04:08:49;13.10;99.90
44215;DHT22;29884;47.450;19.124;2023-10-31T04:11:14;13.10;99.90
44215;DHT22;29884;47.450;19.124;2023-10-31T04:13:40;13.10;99.90
44215;DHT22;29884;47.450;19.124;2023-10-31T04:16:06;13.00;99.90
44215;DHT22;29884;47.450;19.124;2023-10-31T04:18:32;13.00;99.90
44215;DHT22;29884;47.450;19.124;2023-10-31T04:20:58;13.00;99.90
44215;DHT22;29884;47.450;19.124;2023-10-31T04:23:23;12.90;99.90
44215;DHT22;29884;47.450;19.124;2023-10-31T04:25:51;13.00;99.90
44215;DHT22;29884;47.450;19.124;2023-10-31T04:28:18;13.00;99.90
44215;DHT22;29884;47.450;19.124;2023-10-31T04:30:43;12.90;99.90
44215;DHT22;29884;47.450;19.124;2023-10-31T04:33:09;13.00;99.90
44215;DHT22;29884;47.450;19.124;2023-10-31T04:35:35;13.00;99.90
44215;DHT22;29884;47.450;19.124;2023-10-31T04:38:01;13.00;99.90
44215;DHT22;29884;47.450;19.124;2023-10-31T04:40:26;13.00;99.90
44215;DHT22;29884;47.450;19.124;2023-10-31T04:42:52;13.00;99.90
44215;DHT22;29884;47.450;19.124;2023-10-31T04:45:18;13.00;99.90
44215;DHT22;29884;47.450;19.124;2023-10-31T04:47:43;12.90;99.90
44215;DHT22;29884;47.450;19.124;2023-10-31T04:50:09;12.90;99.90
44215;DHT22;29884;47.450;19.124;2023-10-31T04:52:35;13.00;99.90
44215;DHT22;29884;47.450;19.124;2023-10-31T04:55:07;13.00;99.90
44215;DHT22;29884;47.450;19.124;2023-10-31T04:57:33;12.90;99.90
44215;DHT22;29884;47.450;19.124;2023-10-31T04:59:59;12.90;99.90
44215;DHT22;29884;47.450;19.124;2023-10-31T05:02:25;12.90;99.90
44215;DHT22;29884;47.450;19.124;2023-10-31T05:04:51;12.90;99.90
44215;DHT22;29884;47.450;19.124;2023-10-31T05:07:17;12.90;99.90
44215;DHT22;29884;47.450;19.124;2023-10-31T05:09:43;12.90;99.90
44215;DHT22;29884;47.450;19.124;2023-10-31T05:12:09;12.80;99.90
44215;DHT22;29884;47.450;19.124;2023-10-31T05:14:35;12.80;99.90
44215;DHT22;29884;47.450;19.124;2023-10-31T05:17:00;12.80;99.90
44215;DHT22;29884;47.450;19.124;2023-10-31T05:19:26;12.80;99.90
44215;DHT22;29884;47.450;19.124;2023-10-31T05:21:52;12.90;99.90
44215;DHT22;29884;47.450;19.124;2023-10-31T05:24:18;12.90;99.90
44215;DHT22;29884;47.450;19.124;2023-10-31T05:26:44;12.80;99.90
44215;DHT22;29884;47.450;19.124;2023-10-31T05:29:11;12.80;99.90
44215;DHT22;29884;47.450;19.124;2023-10-31T05:31:37;12.90;99.90
44215;DHT22;29884;47.450;19.124;2023-10-31T05:34:02;12.80;99.90
44215;DHT22;29884;47.450;19.124;2023-10-31T05:36:32;12.90;99.90
44215;DHT22;29884;47.450;19.124;2023-10-31T05:38:58;12.90;99.90
44215;DHT22;29884;47.450;19.124;2023-10-31T05:41:23;13.00;99.90
44215;DHT22;29884;47.450;19.124;2023-10-31T05:43:49;13.00;99.90
44215;DHT22;29884;47.450;19.124;2023-10-31T05:46:15;13.00;99.90
44215;DHT22;29884;47.450;19.124;2023-10-31T05:48:44;13.00;99.90
44215;DHT22;29884;47.450;19.124;2023-10-31T05:51:13;12.90;99.90
44215;DHT22;29884;47.450;19.124;2023-10-31T05:53:40;13.00;99.90
44215;DHT22;29884;47.450;19.124;2023-10-31T05:56:06;13.00;99.90
44215;DHT22;29884;47.450;19.124;2023-10-31T05:58:33;12.90;99.90
44215;DHT22;29884;47.450;19.124;2023-10-31T06:00:58;12.90;99.90
44215;DHT22;29884;47.450;19.124;2023-10-31T06:03:24;12.80;99.90
44215;DHT22;29884;47.450;19.124;2023-10-31T06:05:50;12.80;99.90
44215;DHT22;29884;47.450;19.124;2023-10-31T06:08:15;12.80;99.90
44215;DHT22;29884;47.450;19.124;2023-10-31T06:10:41;12.80;99.90
44215;DHT22;29884;47.450;19.124;2023-10-31T06:13:07;12.90;99.90
44215;DHT22;29884;47.450;19.124;2023-10-31T06:15:32;12.90;99.90
44215;DHT22;29884;47.450;19.124;2023-10-31T06:17:58;12.90;99.90
44215;DHT22;29884;47.450;19.124;2023-10-31T06:20:24;12.90;99.90
44215;DHT22;29884;47.450;19.124;2023-10-31T06:22:49;12.90;99.90
44215;DHT22;29884;47.450;19.124;2023-10-31T06:25:15;13.00;99.90
44215;DHT22;29884;47.450;19.124;2023-10-31T06:27:41;13.00;99.90
44215;DHT22;29884;47.450;19.124;2023-10-31T06:30:07;13.00;99.90
44215;DHT22;29884;47.450;19.124;2023-10-31T06:32:33;13.10;99.90
44215;DHT22;29884;47.450;19.124;2023-10-31T06:34:59;13.10;99.90
44215;DHT22;29884;47.450;19.124;2023-10-31T06:37:24;13.20;99.90
44215;DHT22;29884;47.450;19.124;2023-10-31T06:39:50;13.30;99.90
44215;DHT22;29884;47.450;19.124;2023-10-31T06:42:16;13.30;99.90
44215;DHT22;29884;47.450;19.124;2023-10-31T06:44:41;13.30;99.90
44215;DHT22;29884;47.450;19.124;2023-10-31T06:47:07;13.30;99.90
44215;DHT22;29884;47.450;19.124;2023-10-31T06:49:33;13.30;99.90
44215;DHT22;29884;47.450;19.124;2023-10-31T06:51:58;13.20;99.90
44215;DHT22;29884;47.450;19.124;2023-10-31T06:54:24;13.30;99.90
44215;DHT22;29884;47.450;19.124;2023-10-31T06:56:50;13.30;99.90
44215;DHT22;29884;47.450;19.124;2023-10-31T06:59:16;13.30;99.90
44215;DHT22;29884;47.450;19.124;2023-10-31T07:01:42;13.30;99.90
44215;DHT22;29884;47.450;19.124;2023-10-31T07:04:10;13.30;99.90
44215;DHT22;29884;47.450;19.124;2023-10-31T07:06:36;13.30;99.90
44215;DHT22;29884;47.450;19.124;2023-10-31T07:09:02;13.30;99.90
44215;DHT22;29884;47.450;19.124;2023-10-31T07:11:31;13.30;99.90
44215;DHT22;29884;47.450;19.124;2023-10-31T07:14:02;13.30;99.90
44215;DHT22;29884;47.450;19.124;2023-10-31T07:16:29;13.40;99.90
44215;DHT22;29884;47.450;19.124;2023-10-31T07:18:55;13.40;99.90
44215;DHT22;29884;47.450;19.124;2023-10-31T07:21:20;13.50;99.90
44215;DHT22;29884;47.450;19.124;2023-10-31T07:23:46;13.50;99.90
44215;DHT22;29884;47.450;19.124;2023-10-31T07:26:12;13.60;99.90
44215;DHT22;29884;47.450;19.124;2023-10-31T07:28:37;13.70;99.90
44215;DHT22;29884;47.450;19.124;2023-10-31T07:31:04;13.70;99.90
44215;DHT22;29884;47.450;19.124;2023-10-31T07:33:30;13.80;99.90
44215;DHT22;29884;47.450;19.124;2023-10-31T07:35:56;13.90;99.90
44215;DHT22;29884;47.450;19.124;2023-10-31T07:38:21;14.00;99.90
44215;DHT22;29884;47.450;19.124;2023-10-31T07:40:47;14.10;99.90
44215;DHT22;29884;47.450;19.124;2023-10-31T07:43:15;14.10;99.90
44215;DHT22;29884;47.450;19.124;2023-10-31T07:45:40;14.20;99.90
44215;DHT22;29884;47.450;19.124;2023-10-31T07:48:07;14.30;99.90
44215;DHT22;29884;47.450;19.124;2023-10-31T07:50:32;14.30;99.90
44215;DHT22;29884;47.450;19.124;2023-10-31T07:52:58;14.40;99.90
44215;DHT22;29884;47.450;19.124;2023-10-31T07:55:25;14.50;99.90
44215;DHT22;29884;47.450;19.124;2023-10-31T07:57:50;14.60;99.90
44215;DHT22;29884;47.450;19.124;2023-10-31T08:00:16;14.70;99.90
44215;DHT22;29884;47.450;19.124;2023-10-31T08:02:42;14.80;99.90
44215;DHT22;29884;47.450;19.124;2023-10-31T08:05:09;15.20;99.90
44215;DHT22;29884;47.450;19.124;2023-10-31T08:07:35;15.60;99.90
44215;DHT22;29884;47.450;19.124;2023-10-31T08:10:02;15.90;99.90
44215;DHT22;29884;47.450;19.124;2023-10-31T08:12:29;16.10;99.90
44215;DHT22;29884;47.450;19.124;2023-10-31T08:14:55;16.60;99.90
44215;DHT22;29884;47.450;19.124;2023-10-31T08:17:20;16.60;99.90
44215;DHT22;29884;47.450;19.124;2023-10-31T08:19:46;16.60;99.90
44215;DHT22;29884;47.450;19.124;2023-10-31T08:22:13;16.70;99.90
44215;DHT22;29884;47.450;19.124;2023-10-31T08:24:39;16.50;99.90
44215;DHT22;29884;47.450;19.124;2023-10-31T08:27:05;16.70;99.90
44215;DHT22;29884;47.450;19.124;2023-10-31T08:29:31;16.80;99.90
44215;DHT22;29884;47.450;19.124;2023-10-31T08:31:57;16.60;99.90
44215;DHT22;29884;47.450;19.124;2023-10-31T08:34:23;16.50;99.90
44215;DHT22;29884;47.450;19.124;2023-10-31T08:36:48;16.50;99.90
44215;DHT22;29884;47.450;19.124;2023-10-31T08:39:14;16.60;99.90
44215;DHT22;29884;47.450;19.124;2023-10-31T08:41:59;16.70;99.90
44215;DHT22;29884;47.450;19.124;2023-10-31T08:44:25;16.80;99.90
44215;DHT22;29884;47.450;19.124;2023-10-31T08:46:51;16.80;99.90
44215;DHT22;29884;47.450;19.124;2023-10-31T08:49:19;16.80;99.90
44215;DHT22;29884;47.450;19.124;2023-10-31T08:51:45;16.90;99.90
44215;DHT22;29884;47.450;19.124;2023-10-31T08:54:11;17.00;99.90
44215;DHT22;29884;47.450;19.124;2023-10-31T08:56:37;17.00;99.90
44215;DHT22;29884;47.450;19.124;2023-10-31T08:59:02;17.00;99.90
44215;DHT22;29884;47.450;19.124;2023-10-31T09:01:29;17.10;99.90
44215;DHT22;29884;47.450;19.124;2023-10-31T09:03:55;17.10;99.90
44215;DHT22;29884;47.450;19.124;2023-10-31T09:06:20;17.20;99.90
44215;DHT22;29884;47.450;19.124;2023-10-31T09:08:46;17.20;99.90
44215;DHT22;29884;47.450;19.124;2023-10-31T09:11:12;17.30;99.90
44215;DHT22;29884;47.450;19.124;2023-10-31T09:13:38;17.30;99.90
44215;DHT22;29884;47.450;19.124;2023-10-31T09:16:04;17.30;99.90
44215;DHT22;29884;47.450;19.124;2023-10-31T09:18:29;17.40;99.90
44215;DHT22;29884;47.450;19.124;2023-10-31T09:20:55;17.40;99.90
44215;DHT22;29884;47.450;19.124;2023-10-31T09:23:21;17.50;99.90
44215;DHT22;29884;47.450;19.124;2023-10-31T09:25:46;17.60;99.90
44215;DHT22;29884;47.450;19.124;2023-10-31T09:28:12;17.60;99.90
44215;DHT22;29884;47.450;19.124;2023-10-31T09:30:38;17.60;99.90
44215;DHT22;29884;47.450;19.124;2023-10-31T09:33:04;17.70;99.90
44215;DHT22;29884;47.450;19.124;2023-10-31T09:35:29;17.70;99.90
44215;DHT22;29884;47.450;19.124;2023-10-31T09:37:55;17.80;99.90
44215;DHT22;29884;47.450;19.124;2023-10-31T09:40:21;17.80;99.90
44215;DHT22;29884;47.450;19.124;2023-10-31T09:42:47;17.90;99.90
44215;DHT22;29884;47.450;19.124;2023-10-31T09:45:15;17.90;99.90
44215;DHT22;29884;47.450;19.124;2023-10-31T09:47:40;18.00;99.90
44215;DHT22;29884;47.450;19.124;2023-10-31T09:50:08;18.00;99.90
44215;DHT22;29884;47.450;19.124;2023-10-31T09:52:38;18.00;99.90
44215;DHT22;29884;47.450;19.124;2023-10-31T09:55:04;18.10;99.90
44215;DHT22;29884;47.450;19.124;2023-10-31T09:57:31;18.10;99.90
44215;DHT22;29884;47.450;19.124;2023-10-31T09:59:57;18.20;99.90
44215;DHT22;29884;47.450;19.124;2023-10-31T10:02:22;18.30;99.90
44215;DHT22;29884;47.450;19.124;2023-10-31T10:04:48;18.30;99.90
44215;DHT22;29884;47.450;19.124;2023-10-31T10:07:19;18.30;99.90
44215;DHT22;29884;47.450;19.124;2023-10-31T10:09:46;18.40;99.90
44215;DHT22;29884;47.450;19.124;2023-10-31T10:12:13;18.50;99.90
44215;DHT22;29884;47.450;19.124;2023-10-31T10:14:39;18.50;99.90
44215;DHT22;29884;47.450;19.124;2023-10-31T10:17:22;18.60;99.90
44215;DHT22;29884;47.450;19.124;2023-10-31T10:19:47;18.60;99.90
44215;DHT22;29884;47.450;19.124;2023-10-31T10:22:13;18.70;99.90
44215;DHT22;29884;47.450;19.124;2023-10-31T10:24:41;18.70;99.90
44215;DHT22;29884;47.450;19.124;2023-10-31T10:27:08;18.80;99.20
44215;DHT22;29884;47.450;19.124;2023-10-31T10:29:38;18.80;97.70
44215;DHT22;29884;47.450;19.124;2023-10-31T10:32:07;18.80;97.70
44215;DHT22;29884;47.450;19.124;2023-10-31T10:34:36;18.90;99.70
44215;DHT22;29884;47.450;19.124;2023-10-31T10:37:04;18.90;96.90
44215;DHT22;29884;47.450;19.124;2023-10-31T10:39:32;18.90;96.50
44215;DHT22;29884;47.450;19.124;2023-10-31T10:42:01;19.00;95.60
44215;DHT22;29884;47.450;19.124;2023-10-31T10:44:34;19.00;96.20
44215;DHT22;29884;47.450;19.124;2023-10-31T10:47:02;19.10;97.00
44215;DHT22;29884;47.450;19.124;2023-10-31T10:49:36;19.10;96.90
44215;DHT22;29884;47.450;19.124;2023-10-31T10:54:40;19.20;95.50
44215;DHT22;29884;47.450;19.124;2023-10-31T10:57:20;19.30;96.50
44215;DHT22;29884;47.450;19.124;2023-10-31T10:59:48;19.30;94.90
44215;DHT22;29884;47.450;19.124;2023-10-31T11:02:18;19.30;94.80
44215;DHT22;29884;47.450;19.124;2023-10-31T11:04:44;19.30;93.30
44215;DHT22;29884;47.450;19.124;2023-10-31T11:07:10;19.40;93.50
44215;DHT22;29884;47.450;19.124;2023-10-31T11:09:37;19.40;93.10
44215;DHT22;29884;47.450;19.124;2023-10-31T11:12:04;19.40;93.60
44215;DHT22;29884;47.450;19.124;2023-10-31T11:14:31;19.50;93.70
44215;DHT22;29884;47.450;19.124;2023-10-31T11:17:01;19.50;93.40
44215;DHT22;29884;47.450;19.124;2023-10-31T11:19:30;19.60;93.70
44215;DHT22;29884;47.450;19.124;2023-10-31T11:22:01;19.60;92.70
44215;DHT22;29884;47.450;19.124;2023-10-31T11:24:28;19.50;92.40
44215;DHT22;29884;47.450;19.124;2023-10-31T11:27:01;19.50;93.00
44215;DHT22;29884;47.450;19.124;2023-10-31T11:29:28;19.40;93.40
44215;DHT22;29884;47.450;19.124;2023-10-31T11:31:57;19.30;93.10
44215;DHT22;29884;47.450;19.124;2023-10-31T11:34:25;19.30;94.10
44215;DHT22;29884;47.450;19.124;2023-10-31T11:36:51;19.30;96.10
44215;DHT22;29884;47.450;19.124;2023-10-31T11:39:21;19.30;93.50
44215;DHT22;29884;47.450;19.124;2023-10-31T11:41:54;19.40;92.70
44215;DHT22;29884;47.450;19.124;2023-10-31T11:44:25;19.30;95.60
44215;DHT22;29884;47.450;19.124;2023-10-31T11:46:52;19.20;96.20
44215;DHT22;29884;47.450;19.124;2023-10-31T11:52:17;19.00;97.60
44215;DHT22;29884;47.450;19.124;2023-10-31T11:54:43;18.90;97.10
44215;DHT22;29884;47.450;19.124;2023-10-31T11:57:09;18.80;97.10
44215;DHT22;29884;47.450;19.124;2023-10-31T11:59:37;18.70;97.80
44215;DHT22;29884;47.450;19.124;2023-10-31T12:02:13;18.50;98.30
44215;DHT22;29884;47.450;19.124;2023-10-31T12:04:39;18.50;98.30
44215;DHT22;29884;47.450;19.124;2023-10-31T12:07:05;18.40;99.00
44215;DHT22;29884;47.450;19.124;2023-10-31T12:09:31;18.40;99.90
44215;DHT22;29884;47.450;19.124;2023-10-31T12:11:56;18.30;99.90
44215;DHT22;29884;47.450;19.124;2023-10-31T12:14:22;18.10;99.90
44215;DHT22;29884;47.450;19.124;2023-10-31T12:16:48;18.10;99.90
44215;DHT22;29884;47.450;19.124;2023-10-31T12:19:14;18.00;99.90
44215;DHT22;29884;47.450;19.124;2023-10-31T12:21:40;17.90;99.90
44215;DHT22;29884;47.450;19.124;2023-10-31T12:24:12;17.70;99.90
44215;DHT22;29884;47.450;19.124;2023-10-31T12:26:38;17.40;99.90
44215;DHT22;29884;47.450;19.124;2023-10-31T12:29:20;17.10;99.90
44215;DHT22;29884;47.450;19.124;2023-10-31T12:31:49;16.80;99.90
44215;DHT22;29884;47.450;19.124;2023-10-31T12:34:16;16.50;99.90
44215;DHT22;29884;47.450;19.124;2023-10-31T12:36:43;16.20;99.90
44215;DHT22;29884;47.450;19.124;2023-10-31T12:39:13;15.60;99.90
44215;DHT22;29884;47.450;19.124;2023-10-31T12:41:40;15.40;99.90
44215;DHT22;29884;47.450;19.124;2023-10-31T12:44:07;15.10;99.90
44215;DHT22;29884;47.450;19.124;2023-10-31T12:46:39;15.00;99.90
44215;DHT22;29884;47.450;19.124;2023-10-31T12:49:17;14.80;99.90
44215;DHT22;29884;47.450;19.124;2023-10-31T12:51:59;14.70;99.90
44215;DHT22;29884;47.450;19.124;2023-10-31T12:54:31;14.70;99.90
44215;DHT22;29884;47.450;19.124;2023-10-31T12:57:09;14.70;99.90
44215;DHT22;29884;47.450;19.124;2023-10-31T12:59:38;14.70;99.90
44215;DHT22;29884;47.450;19.124;2023-10-31T13:02:05;14.60;99.90
44215;DHT22;29884;47.450;19.124;2023-10-31T13:04:32;14.60;99.90
44215;DHT22;29884;47.450;19.124;2023-10-31T13:07:00;14.60;99.90
44215;DHT22;29884;47.450;19.124;2023-10-31T13:09:37;14.60;99.90
44215;DHT22;29884;47.450;19.124;2023-10-31T13:12:05;14.70;99.90
44215;DHT22;29884;47.450;19.124;2023-10-31T13:14:32;14.60;99.90
44215;DHT22;29884;47.450;19.124;2023-10-31T13:16:58;14.60;99.90
44215;DHT22;29884;47.450;19.124;2023-10-31T13:19:24;14.60;99.90
44215;DHT22;29884;47.450;19.124;2023-10-31T13:21:50;14.60;99.90
44215;DHT22;29884;47.450;19.124;2023-10-31T13:24:16;14.50;99.90
44215;DHT22;29884;47.450;19.124;2023-10-31T13:26:42;14.40;99.90
44215;DHT22;29884;47.450;19.124;2023-10-31T13:29:10;14.40;99.90
44215;DHT22;29884;47.450;19.124;2023-10-31T13:31:36;14.30;99.90
44215;DHT22;29884;47.450;19.124;2023-10-31T13:34:01;14.30;99.90
44215;DHT22;29884;47.450;19.124;2023-10-31T13:36:27;14.30;99.90
44215;DHT22;29884;47.450;19.124;2023-10-31T13:38:53;14.30;99.90
44215;DHT22;29884;47.450;19.124;2023-10-31T13:41:18;14.30;99.90
44215;DHT22;29884;47.450;19.124;2023-10-31T13:43:44;14.20;99.90
44215;DHT22;29884;47.450;19.124;2023-10-31T13:46:10;14.20;99.90
44215;DHT22;29884;47.450;19.124;2023-10-31T13:48:36;14.10;99.90
44215;DHT22;29884;47.450;19.124;2023-10-31T13:51:01;14.00;99.90
44215;DHT22;29884;47.450;19.124;2023-10-31T13:53:27;13.90;99.90
44215;DHT22;29884;47.450;19.124;2023-10-31T13:55:53;13.80;99.90
44215;DHT22;29884;47.450;19.124;2023-10-31T13:58:19;13.70;99.90
44215;DHT22;29884;47.450;19.124;2023-10-31T14:00:45;13.60;99.90
44215;DHT22;29884;47.450;19.124;2023-10-31T14:03:12;13.50;99.90
44215;DHT22;29884;47.450;19.124;2023-10-31T14:05:37;13.50;99.90
44215;DHT22;29884;47.450;19.124;2023-10-31T14:08:04;13.50;99.90
44215;DHT22;29884;47.450;19.124;2023-10-31T14:10:31;13.50;99.90
44215;DHT22;29884;47.450;19.124;2023-10-31T14:13:00;13.50;99.90
44215;DHT22;29884;47.450;19.124;2023-10-31T14:15:26;13.50;99.90
44215;DHT22;29884;47.450;19.124;2023-10-31T14:17:51;13.50;99.90
44215;DHT22;29884;47.450;19.124;2023-10-31T14:20:17;13.40;99.90
44215;DHT22;29884;47.450;19.124;2023-10-31T14:22:47;13.40;99.90
44215;DHT22;29884;47.450;19.124;2023-10-31T14:25:14;13.40;99.90
44215;DHT22;29884;47.450;19.124;2023-10-31T14:27:41;13.50;99.90
44215;DHT22;29884;47.450;19.124;2023-10-31T14:30:07;13.40;99.90
44215;DHT22;29884;47.450;19.124;2023-10-31T14:32:33;13.40;99.90
44215;DHT22;29884;47.450;19.124;2023-10-31T14:35:00;13.40;99.90
44215;DHT22;29884;47.450;19.124;2023-10-31T14:37:25;13.30;99.90
44215;DHT22;29884;47.450;19.124;2023-10-31T14:39:51;13.30;99.90
44215;DHT22;29884;47.450;19.124;2023-10-31T14:42:17;13.30;99.90
44215;DHT22;29884;47.450;19.124;2023-10-31T14:44:43;13.20;99.90
44215;DHT22;29884;47.450;19.124;2023-10-31T14:47:08;13.20;99.90
44215;DHT22;29884;47.450;19.124;2023-10-31T14:49:35;13.20;99.90
44215;DHT22;29884;47.450;19.124;2023-10-31T14:52:00;13.10;99.90
44215;DHT22;29884;47.450;19.124;2023-10-31T14:54:26;13.10;99.90
44215;DHT22;29884;47.450;19.124;2023-10-31T14:56:52;13.10;99.90
44215;DHT22;29884;47.450;19.124;2023-10-31T14:59:18;13.10;99.90
44215;DHT22;29884;47.450;19.124;2023-10-31T15:01:44;13.00;99.90
44215;DHT22;29884;47.450;19.124;2023-10-31T15:04:09;13.10;99.90
44215;DHT22;29884;47.450;19.124;2023-10-31T15:06:36;13.10;99.90
44215;DHT22;29884;47.450;19.124;2023-10-31T15:09:02;13.00;99.90
44215;DHT22;29884;47.450;19.124;2023-10-31T15:11:28;13.00;99.90
44215;DHT22;29884;47.450;19.124;2023-10-31T15:13:54;13.00;99.90
44215;DHT22;29884;47.450;19.124;2023-10-31T15:16:20;13.00;99.90